METAR Data
IDs: Format: Raw Decoded Include TAF

Data at: 1303 UTC 24 Jan 2021

KIAH 241253Z 10005KT 1/4SM -RA FG VV002 17/16 A2996 RMK AO2 SFC VIS 1/2 RAB43 SLP146 P0000 T01670161

KIAH 241130Z 2412/2518 13007KT 1/2SM FG OVC002
  TEMPO 2412/2415 1/4SM FG
  FM241500 14009KT 4SM BR VCSH OVC005
  FM241800 15011KT P6SM SCT005 OVC010
  FM242100 16014KT P6SM BKN015 OVC022
  FM250100 18012KT 4SM BR BKN005 OVC012
  FM251600 21011KT 6SM BR VCSH SCT007 OVC015